createdAt,value
2023-12-29T06:02:06.084Z,95322.00
2023-12-29T06:02:26.859Z,95320.00
2023-12-29T06:04:51.351Z,95327.00
2023-12-29T06:05:49.364Z,95329.00
2023-12-29T06:06:49.387Z,95329.00
2023-12-29T06:07:49.358Z,95329.00
2023-12-29T06:08:49.350Z,95325.00
2023-12-29T06:11:24.488Z,95313.00
2023-12-29T06:13:29.332Z,95312.00
2023-12-29T06:14:29.360Z,95313.00
2023-12-29T06:15:29.358Z,95312.00
2023-12-29T06:16:29.342Z,95312.00
2023-12-29T06:17:29.395Z,95310.00
2023-12-29T06:18:29.630Z,95312.00
2023-12-29T06:19:29.371Z,95314.00
2023-12-29T06:20:29.364Z,95315.00
2023-12-29T06:21:29.416Z,95317.00
2023-12-29T06:22:29.353Z,95314.00
2023-12-29T06:23:29.336Z,95312.00
2023-12-29T06:24:29.377Z,95311.00
2023-12-29T06:25:29.366Z,95312.00
2023-12-29T06:26:29.401Z,95313.00
2023-12-29T06:27:29.357Z,95310.00
2023-12-29T06:28:29.378Z,95305.00
2023-12-29T06:29:29.363Z,95307.00
2023-12-29T06:30:29.455Z,95305.00
2023-12-29T06:31:29.414Z,95298.00
2023-12-29T06:32:29.442Z,95295.00
2023-12-29T06:33:29.421Z,95292.00
2023-12-29T06:34:29.550Z,95293.00
2023-12-29T06:35:29.488Z,95297.00
2023-12-29T06:36:29.519Z,95305.00
2023-12-29T06:37:29.598Z,95309.00
2023-12-29T06:38:29.641Z,95306.00
2023-12-29T06:39:29.757Z,95305.00
2023-12-29T06:40:29.778Z,95299.00
2023-12-29T06:41:29.840Z,95292.00
2023-12-29T06:42:29.891Z,95286.00
2023-12-29T06:43:29.940Z,95288.00
2023-12-29T06:44:29.994Z,95292.00
2023-12-29T06:45:30.182Z,95294.00
2023-12-29T06:46:30.102Z,95302.00
2023-12-29T06:47:30.255Z,95307.00
2023-12-29T06:48:30.279Z,95308.00
2023-12-29T06:49:30.373Z,95310.00
2023-12-29T06:50:30.380Z,95311.00
2023-12-29T06:51:30.414Z,95306.00
2023-12-29T06:52:30.453Z,95303.00
2023-12-29T06:53:30.545Z,95301.00
2023-12-29T06:54:30.601Z,95305.00
2023-12-29T06:55:30.662Z,95307.00
2023-12-29T06:56:30.697Z,95308.00
2023-12-29T06:57:30.768Z,95309.00
2023-12-29T06:58:30.873Z,95306.00
2023-12-29T06:59:30.859Z,95304.00
2023-12-29T07:00:30.965Z,95305.00
2023-12-29T07:01:31.094Z,95313.00
2023-12-29T07:02:31.056Z,95315.00
2023-12-29T07:03:31.192Z,95318.00
2023-12-29T07:04:31.150Z,95319.00
2023-12-29T07:05:31.195Z,95317.00
2023-12-29T07:06:31.266Z,95316.00
2023-12-29T07:07:31.345Z,95315.00
2023-12-29T07:08:31.359Z,95317.00
2023-12-29T07:09:31.417Z,95319.00
2023-12-29T07:10:31.459Z,95322.00
2023-12-29T07:11:31.522Z,95319.00
2023-12-29T07:12:31.625Z,95317.00
2023-12-29T07:13:31.703Z,95314.00
2023-12-29T07:14:31.726Z,95313.00
2023-12-29T07:15:31.787Z,95314.00
2023-12-29T07:16:31.874Z,95318.00
2023-12-29T07:17:31.976Z,95317.00
2023-12-29T07:18:32.054Z,95311.00
2023-12-29T07:19:32.038Z,95301.00
2023-12-29T07:20:32.086Z,95301.00
2023-12-29T07:21:32.135Z,95302.00
2023-12-29T07:22:32.169Z,95307.00
2023-12-29T07:23:32.289Z,95305.00
2023-12-29T07:24:32.310Z,95304.00
2023-12-29T07:25:32.342Z,95301.00
2023-12-29T07:26:33.824Z,95300.00
2023-12-29T07:27:32.725Z,95304.00
2023-12-29T07:28:32.636Z,95310.00
2023-12-29T07:29:32.704Z,95321.00
2023-12-29T07:30:32.957Z,95328.00
2023-12-29T07:31:32.845Z,95331.00
2023-12-29T07:32:32.887Z,95329.00
2023-12-29T07:33:33.093Z,95325.00
2023-12-29T07:34:33.122Z,95318.00
2023-12-29T07:35:33.201Z,95319.00
2023-12-29T07:36:33.168Z,95321.00
2023-12-29T07:37:33.216Z,95321.00
2023-12-29T07:38:33.254Z,95325.00
2023-12-29T07:39:33.308Z,95329.00
2023-12-29T07:40:33.351Z,95330.00
2023-12-29T07:41:33.424Z,95333.00
2023-12-29T07:42:33.526Z,95329.00
2023-12-29T07:43:33.514Z,95333.00
2023-12-29T07:44:33.613Z,95333.00
2023-12-29T07:45:33.694Z,95335.00
2023-12-29T07:46:33.678Z,95336.00
2023-12-29T07:47:33.824Z,95337.00
2023-12-29T07:48:33.936Z,95339.00
2023-12-29T07:49:34.003Z,95340.00
2023-12-29T07:50:33.931Z,95343.00
2023-12-29T07:51:34.050Z,95345.00
2023-12-29T07:52:34.012Z,95346.00
2023-12-29T07:53:34.117Z,95348.00
2023-12-29T07:54:34.159Z,95346.00
2023-12-29T07:55:34.174Z,95348.00
2023-12-29T07:56:34.201Z,95347.00
2023-12-29T07:57:34.317Z,95344.00
2023-12-29T07:58:34.342Z,95345.00
2023-12-29T07:59:34.377Z,95344.00
2023-12-29T08:00:34.589Z,95348.00
2023-12-29T08:01:34.645Z,95347.00
2023-12-29T08:02:34.587Z,95350.00
2023-12-29T08:03:34.648Z,95351.00
2023-12-29T08:04:34.734Z,95352.00
2023-12-29T08:05:34.802Z,95360.00
2023-12-29T08:06:34.923Z,95365.00
2023-12-29T08:07:34.876Z,95368.00
2023-12-29T08:08:34.954Z,95365.00
2023-12-29T08:09:35.022Z,95365.00
2023-12-29T08:10:35.008Z,95362.00
2023-12-29T08:11:35.109Z,95361.00
2023-12-29T08:12:35.233Z,95361.00
2023-12-29T08:13:35.222Z,95363.00
2023-12-29T08:14:35.255Z,95359.00
2023-12-29T08:15:35.354Z,95360.00
2023-12-29T08:16:35.404Z,95364.00
2023-12-29T08:17:35.440Z,95366.00
2023-12-29T08:18:35.653Z,95371.00
2023-12-29T08:19:35.713Z,95374.00
2023-12-29T08:20:35.638Z,95377.00
2023-12-29T08:21:35.725Z,95377.00
2023-12-29T08:22:35.720Z,95381.00
2023-12-29T08:23:35.818Z,95380.00
2023-12-29T08:24:35.922Z,95378.00
2023-12-29T08:25:35.905Z,95374.00
2023-12-29T08:26:35.981Z,95374.00
2023-12-29T08:27:36.040Z,95375.00
2023-12-29T08:28:36.116Z,95377.00
2023-12-29T08:29:36.165Z,95375.00
2023-12-29T08:30:36.306Z,95371.00
2023-12-29T08:31:36.283Z,95367.00
2023-12-29T08:32:36.358Z,95360.00
2023-12-29T08:33:36.528Z,95359.00
2023-12-29T08:34:36.516Z,95358.00
2023-12-29T08:35:36.521Z,95363.00
2023-12-29T08:36:36.639Z,95368.00
2023-12-29T08:37:36.682Z,95372.00
2023-12-29T08:38:36.699Z,95376.00
2023-12-29T08:39:36.742Z,95376.00
2023-12-29T08:40:36.782Z,95374.00
2023-12-29T08:41:36.841Z,95366.00
2023-12-29T08:42:36.882Z,95356.00
2023-12-29T08:43:36.965Z,95351.00
2023-12-29T08:44:36.971Z,95353.00
2023-12-29T08:45:37.077Z,95350.00
2023-12-29T08:46:37.107Z,95351.00
2023-12-29T08:47:37.267Z,95353.00
2023-12-29T08:48:37.356Z,95357.00
2023-12-29T08:49:37.414Z,95354.00
2023-12-29T08:50:37.340Z,95354.00
2023-12-29T08:51:37.444Z,95353.00
2023-12-29T08:52:37.455Z,95354.00
2023-12-29T08:53:37.512Z,95356.00
2023-12-29T08:54:37.606Z,95356.00
2023-12-29T08:55:37.623Z,95362.00
2023-12-29T08:56:37.664Z,95364.00
2023-12-29T08:57:37.715Z,95363.00
2023-12-29T08:58:37.802Z,95358.00
2023-12-29T08:59:37.878Z,95358.00
2023-12-29T09:02:00.563Z,95365.00
2023-12-29T09:02:56.886Z,95372.00
2023-12-29T09:03:57.053Z,95375.00
2023-12-29T09:04:57.002Z,95375.00
2023-12-29T09:05:59.431Z,95375.00
2023-12-29T09:06:57.135Z,95369.00
2023-12-29T09:07:57.258Z,95368.00
2023-12-29T09:08:57.106Z,95365.00
2023-12-29T09:09:57.150Z,95361.00
2023-12-29T09:10:57.153Z,95365.00
2023-12-29T09:11:57.226Z,95367.00
2023-12-29T09:12:57.279Z,95372.00
2023-12-29T09:13:57.299Z,95376.00
2023-12-29T09:14:57.347Z,95372.00
2023-12-29T09:15:57.409Z,95372.00
2023-12-29T09:16:57.467Z,95368.00
2023-12-29T09:17:57.704Z,95367.00
2023-12-29T09:18:57.626Z,95369.00
2023-12-29T09:20:04.224Z,95369.00
2023-12-29T09:20:58.656Z,95368.00
2023-12-29T11:01:58.355Z,95256.00
2023-12-29T11:02:58.540Z,95250.00
2023-12-29T11:03:58.330Z,95246.00
2023-12-29T11:04:58.349Z,95246.00
2023-12-29T11:05:58.316Z,95245.00
2023-12-29T11:06:58.353Z,95241.00
2023-12-29T11:07:58.326Z,95239.00
2023-12-29T11:08:58.330Z,95238.00
2023-12-29T11:09:58.345Z,95234.00
2023-12-29T11:10:58.360Z,95236.00
2023-12-29T11:11:58.330Z,95237.00
2023-12-29T11:12:58.775Z,95236.00
2023-12-29T11:13:58.329Z,95240.00
2023-12-29T11:14:58.352Z,95239.00
2023-12-29T11:15:58.356Z,95236.00
2023-12-29T11:16:58.358Z,95234.00
2023-12-29T11:17:58.360Z,95230.00
2023-12-29T11:18:58.501Z,95230.00
2023-12-29T11:19:58.467Z,95232.00
2023-12-29T11:20:58.366Z,95229.00
2023-12-29T11:21:58.434Z,95227.00
2023-12-29T11:22:58.699Z,95228.00
2023-12-29T11:23:58.382Z,95226.00
2023-12-29T11:24:58.365Z,95224.00
2023-12-29T11:25:58.368Z,95226.00
2023-12-29T11:26:58.372Z,95222.00
2023-12-29T11:27:58.408Z,95222.00
2023-12-29T11:28:58.375Z,95217.00
2023-12-29T11:29:58.391Z,95213.00
2023-12-29T11:30:58.469Z,95211.00
2023-12-29T11:31:58.439Z,95211.00
2023-12-29T11:32:58.729Z,95209.00
2023-12-29T11:33:58.470Z,95207.00
2023-12-29T11:34:58.400Z,95203.00
2023-12-29T11:35:58.367Z,95201.00
2023-12-29T11:36:58.380Z,95198.00
2023-12-29T11:37:58.377Z,95196.00
2023-12-29T11:38:58.372Z,95192.00
2023-12-29T11:39:58.422Z,95192.00
2023-12-29T11:40:58.376Z,95191.00
2023-12-29T11:41:58.556Z,95192.00
2023-12-29T11:42:58.516Z,95191.00
2023-12-29T11:43:58.528Z,95187.00
2023-12-29T11:44:58.408Z,95183.00
2023-12-29T11:45:58.430Z,95181.00
2023-12-29T11:46:58.428Z,95181.00
2023-12-29T11:47:58.655Z,95181.00
2023-12-29T11:48:58.705Z,95180.00
2023-12-29T11:49:58.396Z,95179.00
2023-12-29T11:50:58.423Z,95177.00
2023-12-29T11:51:58.376Z,95172.00
2023-12-29T11:52:58.446Z,95168.00
2023-12-29T11:53:58.385Z,95172.00
2023-12-29T11:54:58.444Z,95170.00
2023-12-29T11:55:58.374Z,95173.00
2023-12-29T11:56:58.433Z,95170.00
2023-12-29T11:57:58.417Z,95170.00
2023-12-29T11:58:58.430Z,95171.00
2023-12-29T11:59:58.400Z,95167.00
2023-12-29T12:00:58.571Z,95168.00
2023-12-29T12:01:58.564Z,95166.00
2023-12-29T12:02:58.647Z,95164.00
2023-12-29T12:03:58.533Z,95164.00
2023-12-29T12:04:58.503Z,95162.00
2023-12-29T12:05:58.632Z,95158.00
2023-12-29T12:06:58.650Z,95157.00
2023-12-29T12:07:58.780Z,95155.00
2023-12-29T12:08:58.788Z,95154.00
2023-12-29T12:09:58.911Z,95150.00
2023-12-29T12:10:58.892Z,95149.00
2023-12-29T12:11:58.976Z,95147.00
2023-12-29T12:12:59.353Z,95146.00
2023-12-29T12:13:59.129Z,95145.00
2023-12-29T12:14:59.238Z,95145.00
2023-12-29T12:15:59.286Z,95141.00
2023-12-29T12:16:59.288Z,95140.00
2023-12-29T12:17:59.542Z,95137.00
2023-12-29T12:18:59.622Z,95136.00
2023-12-29T12:19:59.488Z,95136.00
2023-12-29T12:20:59.525Z,95135.00
2023-12-29T12:21:59.578Z,95134.00
2023-12-29T12:23:00.215Z,95133.00
2023-12-29T12:23:59.706Z,95132.00
2023-12-29T12:24:59.869Z,95131.00
2023-12-29T12:25:59.856Z,95129.00
2023-12-29T12:26:59.872Z,95128.00
2023-12-29T12:27:59.989Z,95125.00
2023-12-29T12:29:00.049Z,95126.00
2023-12-29T12:30:00.109Z,95127.00
2023-12-29T12:31:00.225Z,95126.00
2023-12-29T12:32:00.226Z,95124.00
2023-12-29T12:33:00.505Z,95122.00
2023-12-29T12:34:00.406Z,95121.00
2023-12-29T12:35:00.508Z,95121.00
2023-12-29T12:36:00.482Z,95118.00
2023-12-29T12:37:00.560Z,95119.00
2023-12-29T12:38:00.594Z,95117.00
2023-12-29T12:39:00.682Z,95115.00
2023-12-29T12:40:00.775Z,95115.00
2023-12-29T12:41:00.783Z,95115.00
2023-12-29T12:42:00.842Z,95113.00
2023-12-29T12:43:01.080Z,95112.00
2023-12-29T12:44:00.955Z,95111.00
2023-12-29T12:45:01.026Z,95109.00
2023-12-29T12:46:01.123Z,95112.00
2023-12-29T12:47:01.108Z,95112.00
2023-12-29T12:48:01.209Z,95111.00
2023-12-29T12:49:01.389Z,95110.00
2023-12-29T12:50:01.305Z,95107.00
2023-12-29T12:51:01.456Z,95105.00
2023-12-29T12:52:01.460Z,95103.00
2023-12-29T12:53:01.666Z,95105.00
2023-12-29T12:54:01.554Z,95104.00
2023-12-29T12:55:01.721Z,95101.00
2023-12-29T12:56:01.686Z,95101.00
2023-12-29T12:57:01.750Z,95099.00
2023-12-29T12:58:01.942Z,95099.00
2023-12-29T12:59:01.827Z,95101.00
2023-12-29T13:00:01.916Z,95102.00
2023-12-29T13:01:02.030Z,95104.00
2023-12-29T13:02:02.189Z,95100.00
2023-12-29T13:03:02.399Z,95096.00
2023-12-29T13:04:02.232Z,95093.00
2023-12-29T13:05:02.207Z,95089.00
2023-12-29T13:06:02.357Z,95091.00
2023-12-29T13:07:02.349Z,95094.00
2023-12-29T13:08:02.418Z,95093.00
2023-12-29T13:09:02.471Z,95093.00
2023-12-29T13:10:02.663Z,95092.00
2023-12-29T13:11:02.549Z,95091.00
2023-12-29T13:12:02.614Z,95092.00
2023-12-29T13:13:03.011Z,95093.00
2023-12-29T13:14:02.737Z,95093.00
2023-12-29T13:15:02.896Z,95094.00
2023-12-29T13:16:02.995Z,95094.00
2023-12-29T13:17:02.989Z,95097.00
2023-12-29T13:18:03.188Z,95098.00
2023-12-29T13:19:03.141Z,95098.00
2023-12-29T13:20:03.196Z,95100.00
2023-12-29T13:21:03.199Z,95100.00
2023-12-29T13:22:03.312Z,95100.00
2023-12-29T13:23:03.478Z,95101.00
2023-12-29T13:24:03.372Z,95100.00
2023-12-29T13:25:03.485Z,95098.00
2023-12-29T13:26:03.467Z,95099.00
2023-12-29T13:27:03.543Z,95099.00
2023-12-29T13:28:03.578Z,95100.00
2023-12-29T13:29:03.597Z,95098.00
2023-12-29T13:30:03.675Z,95101.00
2023-12-29T13:31:03.746Z,95103.00
2023-12-29T13:32:03.805Z,95102.00
2023-12-29T13:33:04.314Z,95102.00
2023-12-29T13:34:03.878Z,95104.00
2023-12-29T13:35:04.009Z,95105.00
2023-12-29T13:37:03.956Z,95106.00
2023-12-29T13:38:11.315Z,95104.00
2023-12-29T13:39:11.340Z,95100.00
2023-12-29T13:40:11.436Z,95104.00
2023-12-29T13:41:11.330Z,95099.00
2023-12-29T13:42:11.361Z,95102.00
2023-12-29T13:43:11.363Z,95104.00
2023-12-29T13:44:11.335Z,95103.00
2023-12-29T13:45:11.352Z,95104.00
2023-12-29T13:46:11.493Z,95105.00
2023-12-29T13:47:11.381Z,95105.00
2023-12-29T13:48:11.471Z,95103.00
2023-12-29T13:49:11.455Z,95106.00
2023-12-29T13:50:11.423Z,95103.00
2023-12-29T13:51:11.333Z,95100.00
2023-12-29T13:52:11.452Z,95102.00
2023-12-29T13:53:11.361Z,95102.00
2023-12-29T13:54:11.351Z,95098.00
2023-12-29T13:55:11.409Z,95100.00
2023-12-29T13:56:11.346Z,95101.00
2023-12-29T13:57:11.366Z,95101.00
2023-12-29T13:58:11.470Z,95101.00
2023-12-29T13:59:11.383Z,95099.00
2023-12-29T14:00:11.386Z,95099.00
2023-12-29T14:01:11.533Z,95096.00
2023-12-29T14:02:11.425Z,95095.00
2023-12-29T14:03:11.502Z,95092.00
2023-12-29T14:04:11.542Z,95092.00
2023-12-29T14:05:11.571Z,95092.00
2023-12-29T14:06:11.481Z,95095.00
2023-12-29T14:07:11.549Z,95096.00
2023-12-29T14:08:11.487Z,95099.00
2023-12-29T14:09:11.510Z,95102.00
2023-12-29T14:10:13.754Z,95104.00
2023-12-29T14:11:11.535Z,95106.00
2023-12-29T14:12:11.577Z,95108.00
2023-12-29T14:13:11.536Z,95108.00
2023-12-29T14:14:11.572Z,95113.00
2023-12-29T14:15:11.551Z,95113.00
2023-12-29T14:16:13.074Z,95116.00
2023-12-29T14:17:11.566Z,95118.00
2023-12-29T14:18:11.691Z,95120.00
2023-12-29T14:19:11.641Z,95123.00
2023-12-29T14:20:11.626Z,95122.00
2023-12-29T14:21:11.546Z,95122.00
2023-12-29T14:22:11.630Z,95124.00
2023-12-29T14:23:11.539Z,95124.00
2023-12-29T14:24:11.912Z,95127.00
2023-12-29T14:25:11.631Z,95125.00
2023-12-29T14:26:11.559Z,95124.00
2023-12-29T14:27:11.545Z,95122.00
2023-12-29T14:28:11.599Z,95122.00
2023-12-29T14:29:11.570Z,95121.00
2023-12-29T14:30:11.662Z,95119.00
2023-12-29T14:31:11.599Z,95122.00
2023-12-29T14:32:11.616Z,95122.00
2023-12-29T14:33:11.634Z,95123.00
2023-12-29T14:34:11.799Z,95122.00
2023-12-29T14:35:11.723Z,95123.00
2023-12-29T14:36:11.718Z,95121.00
2023-12-29T14:37:11.750Z,95121.00
2023-12-29T14:38:11.830Z,95118.00
2023-12-29T14:39:12.123Z,95118.00
2023-12-29T14:40:11.797Z,95116.00
2023-12-29T14:41:11.789Z,95117.00
2023-12-29T14:42:11.823Z,95116.00
2023-12-29T14:43:11.869Z,95118.00
2023-12-29T14:44:11.847Z,95122.00
2023-12-29T14:45:11.854Z,95123.00
2023-12-29T14:46:11.908Z,95123.00
2023-12-29T14:47:11.915Z,95125.00
2023-12-29T14:48:12.023Z,95126.00
2023-12-29T14:49:12.032Z,95125.00
2023-12-29T14:50:12.017Z,95125.00
2023-12-29T14:51:11.981Z,95129.00
2023-12-29T14:52:12.078Z,95131.00
2023-12-29T14:53:12.025Z,95134.00
2023-12-29T14:54:12.023Z,95133.00
2023-12-29T14:55:12.133Z,95131.00
2023-12-29T14:56:12.098Z,95131.00
2023-12-29T14:57:15.885Z,95128.00
2023-12-29T14:58:13.229Z,95131.00
2023-12-29T14:59:12.134Z,95130.00
2023-12-29T15:00:12.115Z,95138.00
2023-12-29T15:01:12.278Z,95138.00
2023-12-29T15:02:12.167Z,95140.00
2023-12-29T15:03:12.191Z,95142.00
2023-12-29T15:04:12.167Z,95145.00
2023-12-29T15:05:12.161Z,95147.00
2023-12-29T15:06:12.159Z,95150.00
2023-12-29T15:07:12.197Z,95152.00
2023-12-29T15:08:12.113Z,95151.00
2023-12-29T15:09:12.183Z,95150.00
2023-12-29T15:10:12.156Z,95151.00
2023-12-29T15:11:12.150Z,95150.00
2023-12-29T15:12:12.151Z,95153.00
2023-12-29T15:13:12.200Z,95153.00
2023-12-29T15:14:12.168Z,95158.00
2023-12-29T15:15:12.132Z,95158.00
2023-12-29T15:16:12.231Z,95160.00
2023-12-29T15:17:12.163Z,95163.00
2023-12-29T15:18:12.246Z,95163.00
2023-12-29T15:19:12.239Z,95164.00
2023-12-29T15:20:12.167Z,95163.00
2023-12-29T15:21:12.160Z,95166.00
2023-12-29T15:22:12.214Z,95166.00
2023-12-29T15:23:12.166Z,95165.00
2023-12-29T15:24:12.184Z,95163.00
2023-12-29T15:25:12.174Z,95161.00
2023-12-29T15:26:12.184Z,95161.00
2023-12-29T15:27:12.208Z,95160.00
2023-12-29T15:28:12.236Z,95158.00
2023-12-29T15:29:12.204Z,95157.00
2023-12-29T15:30:12.179Z,95156.00
2023-12-29T15:31:12.308Z,95157.00
2023-12-29T15:32:12.203Z,95158.00
2023-12-29T15:33:12.293Z,95158.00
2023-12-29T15:34:12.322Z,95163.00
2023-12-29T15:35:12.290Z,95164.00
2023-12-29T15:36:12.262Z,95167.00
2023-12-29T15:37:12.295Z,95165.00
2023-12-29T15:38:12.387Z,95165.00
2023-12-29T15:39:12.273Z,95165.00
2023-12-29T15:40:12.372Z,95163.00
2023-12-29T15:41:12.292Z,95165.00
2023-12-29T15:42:12.333Z,95165.00
2023-12-29T15:43:12.377Z,95164.00
2023-12-29T15:44:12.384Z,95167.00
2023-12-29T15:45:12.343Z,95166.00
2023-12-29T15:46:12.399Z,95171.00
2023-12-29T15:47:12.364Z,95173.00
2023-12-29T15:48:12.485Z,95173.00
2023-12-29T15:49:12.505Z,95172.00
2023-12-29T15:50:12.425Z,95172.00
2023-12-29T15:51:12.445Z,95174.00
2023-12-29T15:52:12.488Z,95174.00
2023-12-29T15:53:12.548Z,95175.00
2023-12-29T15:54:12.473Z,95176.00
2023-12-29T15:55:12.496Z,95176.00
2023-12-29T15:56:12.529Z,95176.00
2023-12-29T15:57:12.524Z,95179.00
2023-12-29T15:58:12.665Z,95181.00
2023-12-29T15:59:12.539Z,95183.00
2023-12-29T16:00:12.574Z,95183.00
2023-12-29T16:01:12.613Z,95183.00
2023-12-29T16:02:12.613Z,95181.00
2023-12-29T16:03:12.778Z,95180.00
2023-12-29T16:04:12.734Z,95180.00
2023-12-29T16:05:12.660Z,95182.00
2023-12-29T16:06:12.654Z,95181.00
2023-12-29T16:07:12.711Z,95182.00
2023-12-29T16:08:12.659Z,95184.00
2023-12-29T16:09:12.752Z,95182.00
2023-12-29T16:10:12.691Z,95184.00
2023-12-29T16:11:12.747Z,95183.00
2023-12-29T16:12:12.774Z,95185.00
2023-12-29T16:13:12.793Z,95184.00
2023-12-29T16:14:12.772Z,95185.00
2023-12-29T16:15:12.777Z,95185.00
2023-12-29T16:16:12.808Z,95190.00
2023-12-29T16:17:12.790Z,95192.00
2023-12-29T16:18:12.933Z,95194.00
2023-12-29T16:19:13.221Z,95193.00
2023-12-29T16:20:12.986Z,95192.00
2023-12-29T16:21:12.861Z,95192.00
2023-12-29T16:22:12.905Z,95193.00
2023-12-29T16:23:12.892Z,95193.00
2023-12-29T16:24:12.869Z,95195.00
2023-12-29T16:25:12.958Z,95197.00
2023-12-29T16:26:12.930Z,95196.00
2023-12-29T16:27:12.925Z,95195.00
2023-12-29T16:28:13.012Z,95194.00
2023-12-29T16:29:12.931Z,95196.00
2023-12-29T16:30:13.000Z,95196.00
2023-12-29T16:31:12.980Z,95194.00
2023-12-29T16:32:13.014Z,95194.00
2023-12-29T16:33:13.084Z,95193.00
2023-12-29T16:34:13.105Z,95193.00
2023-12-29T16:35:13.061Z,95194.00
2023-12-29T16:36:13.092Z,95194.00
2023-12-29T16:37:13.123Z,95195.00
2023-12-29T16:38:13.119Z,95197.00
2023-12-29T16:39:13.104Z,95200.00
2023-12-29T16:40:13.155Z,95202.00
2023-12-29T16:41:13.153Z,95204.00
2023-12-29T16:42:13.188Z,95204.00
2023-12-29T16:43:13.195Z,95208.00
2023-12-29T16:44:13.173Z,95209.00
2023-12-29T16:45:13.183Z,95212.00
2023-12-29T16:46:13.210Z,95210.00
2023-12-29T16:47:13.226Z,95214.00
2023-12-29T16:48:13.303Z,95213.00
2023-12-29T16:49:13.322Z,95210.00
2023-12-29T16:50:13.294Z,95211.00
2023-12-29T16:51:13.293Z,95210.00
2023-12-29T16:52:13.319Z,95209.00
2023-12-29T16:53:13.320Z,95208.00
2023-12-29T16:54:13.349Z,95210.00
2023-12-29T16:55:13.389Z,95210.00
2023-12-29T16:56:13.373Z,95212.00
2023-12-29T16:57:13.407Z,95211.00
2023-12-29T16:58:13.504Z,95211.00
2023-12-29T16:59:13.441Z,95216.00
2023-12-29T17:00:13.483Z,95218.00
2023-12-29T17:01:13.620Z,95218.00
2023-12-29T17:02:13.499Z,95221.00
2023-12-29T17:03:13.763Z,95220.00
2023-12-29T17:04:15.602Z,95221.00
2023-12-29T17:05:13.537Z,95221.00
2023-12-29T17:06:13.517Z,95221.00
2023-12-29T17:07:13.617Z,95223.00
2023-12-29T17:08:13.541Z,95224.00
2023-12-29T17:09:13.547Z,95225.00
2023-12-29T17:10:13.593Z,95225.00
2023-12-29T17:11:13.546Z,95225.00
2023-12-29T17:12:13.566Z,95225.00
2023-12-29T17:13:13.541Z,95227.00
2023-12-29T17:14:13.545Z,95226.00
2023-12-29T17:15:13.545Z,95228.00
2023-12-29T17:16:15.716Z,95228.00
2023-12-29T17:17:13.551Z,95229.00
2023-12-29T17:18:13.671Z,95228.00
2023-12-29T17:19:13.734Z,95230.00
2023-12-29T17:20:13.544Z,95228.00
2023-12-29T17:21:13.564Z,95231.00
2023-12-29T17:22:13.577Z,95233.00
2023-12-29T17:23:13.545Z,95233.00
2023-12-29T17:24:13.553Z,95232.00
2023-12-29T17:25:13.642Z,95233.00
2023-12-29T17:26:13.596Z,95232.00
2023-12-29T17:27:13.578Z,95230.00
2023-12-29T17:28:13.647Z,95228.00
2023-12-29T17:29:13.588Z,95226.00
2023-12-29T17:30:13.598Z,95224.00
2023-12-29T17:31:13.672Z,95222.00
2023-12-29T17:32:13.572Z,95225.00
2023-12-29T17:33:13.696Z,95224.00
2023-12-29T17:34:13.696Z,95226.00
2023-12-29T17:35:13.708Z,95234.00
2023-12-29T17:36:13.567Z,95234.00
2023-12-29T17:37:13.650Z,95233.00
2023-12-29T17:38:13.622Z,95236.00
2023-12-29T17:39:13.605Z,95236.00
2023-12-29T17:40:13.629Z,95235.00
2023-12-29T17:41:13.603Z,95231.00
2023-12-29T17:42:13.570Z,95233.00
2023-12-29T17:43:13.597Z,95237.00
2023-12-29T17:44:13.603Z,95237.00
2023-12-29T17:45:13.598Z,95237.00
2023-12-29T17:46:13.713Z,95234.00
2023-12-29T17:47:13.586Z,95236.00
2023-12-29T17:48:13.636Z,95236.00
2023-12-29T17:49:13.729Z,95238.00
2023-12-29T17:50:13.710Z,95236.00
2023-12-29T17:51:13.628Z,95237.00
2023-12-29T17:52:13.663Z,95238.00
2023-12-29T17:53:13.602Z,95240.00
2023-12-29T17:54:13.634Z,95242.00
2023-12-29T17:55:13.666Z,95245.00
2023-12-29T17:56:13.623Z,95242.00
2023-12-29T17:57:13.612Z,95242.00
2023-12-29T17:58:13.604Z,95244.00
2023-12-29T17:59:13.682Z,95244.00
2023-12-29T18:00:13.615Z,95245.00
